createdAt,value
2017-05-29T00:02:05.893Z,17.73
2017-05-29T00:04:33.439Z,17.64
2017-05-29T00:07:00.989Z,17.69
2017-05-29T00:09:28.575Z,17.47
2017-05-29T00:11:56.143Z,17.52
2017-05-29T00:14:24.257Z,17.64
2017-05-29T00:16:51.841Z,17.62
2017-05-29T00:19:19.378Z,17.70
2017-05-29T00:21:46.931Z,17.65
2017-05-29T00:24:14.586Z,17.59
2017-05-29T00:26:42.409Z,17.46
2017-05-29T00:29:09.950Z,17.27
2017-05-29T00:31:37.531Z,17.46
2017-05-29T00:34:05.074Z,17.49
2017-05-29T00:36:32.631Z,17.52
2017-05-29T00:39:00.240Z,17.25
2017-05-29T00:41:27.790Z,17.29
2017-05-29T00:43:55.391Z,17.39
2017-05-29T00:46:23.111Z,17.43
2017-05-29T00:48:50.677Z,17.34
2017-05-29T00:51:18.241Z,17.28
2017-05-29T00:53:45.823Z,17.31
2017-05-29T00:56:13.370Z,17.29
2017-05-29T00:58:40.927Z,17.09
2017-05-29T01:01:08.537Z,17.33
2017-05-29T01:03:36.072Z,17.23
2017-05-29T01:06:03.625Z,17.24
2017-05-29T01:08:31.205Z,17.26
2017-05-29T01:10:58.772Z,17.25
2017-05-29T01:13:26.661Z,17.26
2017-05-29T01:15:54.236Z,17.32
2017-05-29T01:18:21.786Z,17.24
2017-05-29T01:20:49.333Z,17.22
2017-05-29T01:23:16.918Z,17.21
2017-05-29T01:25:44.473Z,17.14
2017-05-29T01:28:12.021Z,17.10
2017-05-29T01:30:39.711Z,17.08
2017-05-29T01:33:07.265Z,16.52
2017-05-29T01:35:35.111Z,16.58
2017-05-29T01:38:02.700Z,16.82
2017-05-29T01:40:30.583Z,16.54
2017-05-29T01:42:58.129Z,16.70
2017-05-29T01:45:25.725Z,16.75
2017-05-29T01:47:53.271Z,16.51
2017-05-29T01:50:20.853Z,16.54
2017-05-29T01:52:48.446Z,16.56
2017-05-29T01:55:15.998Z,16.64
2017-05-29T01:57:43.785Z,16.14
2017-05-29T02:00:12.287Z,15.57
2017-05-29T02:02:39.826Z,16.07
2017-05-29T02:05:07.433Z,16.01
2017-05-29T02:07:35.036Z,16.20
2017-05-29T02:10:02.577Z,16.28
2017-05-29T02:12:30.354Z,16.42
2017-05-29T02:14:58.167Z,16.27
2017-05-29T02:17:25.949Z,16.22
2017-05-29T02:19:53.517Z,16.01
2017-05-29T02:22:21.113Z,15.62
2017-05-29T02:24:48.669Z,15.27
2017-05-29T02:27:16.215Z,15.59
2017-05-29T02:29:43.804Z,15.77
2017-05-29T02:32:11.400Z,15.82
2017-05-29T02:34:38.963Z,16.05
2017-05-29T02:37:06.536Z,16.04
2017-05-29T02:39:34.136Z,16.06
2017-05-29T02:42:01.711Z,16.02
2017-05-29T02:44:29.254Z,16.08
2017-05-29T02:46:56.848Z,16.04
2017-05-29T02:49:24.392Z,15.88
2017-05-29T02:51:51.954Z,15.80
2017-05-29T02:54:19.538Z,16.04
2017-05-29T02:56:47.093Z,15.66
2017-05-29T02:59:14.654Z,15.87
2017-05-29T03:01:42.262Z,15.97
2017-05-29T03:04:09.814Z,16.03
2017-05-29T03:06:37.360Z,16.05
2017-05-29T03:09:04.964Z,16.12
2017-05-29T03:11:32.742Z,16.16
2017-05-29T03:14:00.281Z,16.15
2017-05-29T03:16:27.856Z,16.09
2017-05-29T03:18:55.402Z,16.06
2017-05-29T03:21:22.950Z,16.12
2017-05-29T03:23:50.531Z,16.11
2017-05-29T03:26:18.094Z,15.68
2017-05-29T03:28:45.633Z,15.64
2017-05-29T03:31:13.222Z,15.88
2017-05-29T03:33:40.815Z,15.83
2017-05-29T03:36:08.363Z,15.90
2017-05-29T03:38:35.956Z,15.77
2017-05-29T03:41:03.557Z,15.44
2017-05-29T03:43:31.117Z,15.12
2017-05-29T03:45:58.713Z,15.84
2017-05-29T03:48:26.354Z,16.19
2017-05-29T03:50:53.903Z,16.13
2017-05-29T03:53:21.491Z,15.55
2017-05-29T03:55:49.289Z,15.35
2017-05-29T03:58:16.868Z,15.37
2017-05-29T04:00:44.505Z,15.22
2017-05-29T04:03:12.068Z,15.30
2017-05-29T04:05:39.623Z,15.85
2017-05-29T04:08:07.453Z,15.89
2017-05-29T04:10:35.013Z,15.68
2017-05-29T04:13:02.561Z,15.65
2017-05-29T04:15:30.149Z,15.09
2017-05-29T04:17:57.711Z,15.76
2017-05-29T04:20:25.311Z,15.74
2017-05-29T04:22:52.914Z,15.76
2017-05-29T04:25:20.510Z,15.98
2017-05-29T04:27:48.103Z,16.02
2017-05-29T04:30:15.830Z,16.01
2017-05-29T04:32:43.385Z,16.58
2017-05-29T04:35:10.946Z,16.85
2017-05-29T04:37:38.569Z,16.99
2017-05-29T04:40:06.126Z,17.09
2017-05-29T04:42:33.678Z,17.15
2017-05-29T04:45:01.261Z,17.24
2017-05-29T04:47:29.043Z,17.25
2017-05-29T04:49:56.602Z,17.27
2017-05-29T04:52:24.240Z,17.31
2017-05-29T04:54:51.787Z,17.31
2017-05-29T04:57:19.708Z,17.25
2017-05-29T04:59:47.417Z,17.26
2017-05-29T05:02:15.005Z,17.43
2017-05-29T05:04:42.624Z,17.45
2017-05-29T05:07:10.187Z,17.44
2017-05-29T05:09:37.770Z,17.32
2017-05-29T05:12:05.326Z,17.36
2017-05-29T05:14:33.259Z,17.42
2017-05-29T05:17:00.862Z,17.67
2017-05-29T05:19:28.407Z,17.76
2017-05-29T05:21:55.977Z,17.96
2017-05-29T05:24:23.551Z,17.86
2017-05-29T05:26:51.333Z,18.07
2017-05-29T05:29:18.918Z,18.21
2017-05-29T05:31:46.522Z,18.10
2017-05-29T05:34:14.073Z,18.24
2017-05-29T05:36:41.671Z,18.46
2017-05-29T05:39:09.281Z,18.47
2017-05-29T05:41:36.933Z,18.71
2017-05-29T05:44:04.792Z,18.34
2017-05-29T05:46:32.400Z,18.57
2017-05-29T05:48:59.943Z,19.28
2017-05-29T05:51:27.519Z,19.30
2017-05-29T05:53:55.120Z,19.93
2017-05-29T05:56:22.938Z,20.21
2017-05-29T05:58:50.486Z,20.52
2017-05-29T06:01:18.112Z,19.86
2017-05-29T06:03:45.883Z,19.41
2017-05-29T06:06:13.457Z,19.83
2017-05-29T06:08:41.041Z,19.51
2017-05-29T06:11:08.607Z,19.58
2017-05-29T06:13:36.147Z,20.37
2017-05-29T06:16:03.745Z,20.41
2017-05-29T06:18:31.290Z,19.69
2017-05-29T06:20:58.844Z,20.65
2017-05-29T06:23:26.427Z,20.04
2017-05-29T06:25:53.975Z,20.07
2017-05-29T06:28:21.539Z,19.59
2017-05-29T06:30:49.235Z,19.61
2017-05-29T06:33:16.790Z,20.20
2017-05-29T06:35:44.333Z,20.05
2017-05-29T06:38:11.935Z,21.31
2017-05-29T06:40:39.507Z,20.69
2017-05-29T06:43:07.342Z,20.73
2017-05-29T06:45:34.921Z,20.12
2017-05-29T06:48:02.479Z,20.37
2017-05-29T06:50:30.027Z,20.07
2017-05-29T06:52:57.620Z,20.45
2017-05-29T06:55:25.165Z,19.85
2017-05-29T06:57:52.733Z,20.34
2017-05-29T07:00:20.427Z,21.16
2017-05-29T07:02:47.981Z,20.80
2017-05-29T07:05:15.538Z,20.82
2017-05-29T07:07:43.127Z,21.96
2017-05-29T07:10:10.680Z,22.58
2017-05-29T07:12:38.226Z,20.80
2017-05-29T07:15:05.844Z,21.05
2017-05-29T07:17:33.385Z,21.72
2017-05-29T07:20:00.936Z,20.87
2017-05-29T07:22:28.520Z,20.80
2017-05-29T07:24:56.382Z,21.21
2017-05-29T07:27:23.934Z,21.51
2017-05-29T07:29:51.516Z,21.50
2017-05-29T07:32:19.111Z,22.64
2017-05-29T07:34:47.007Z,22.28
2017-05-29T07:37:14.555Z,22.37
2017-05-29T07:39:42.165Z,22.35
2017-05-29T07:42:09.739Z,20.97
2017-05-29T07:44:37.285Z,22.19
2017-05-29T07:47:04.884Z,21.67
2017-05-29T07:49:32.665Z,22.42
2017-05-29T07:52:00.214Z,22.77
2017-05-29T07:54:27.798Z,22.14
2017-05-29T07:56:55.355Z,21.96
2017-05-29T07:59:22.921Z,21.79
2017-05-29T08:01:50.503Z,22.35
2017-05-29T08:04:18.088Z,21.92
2017-05-29T08:06:45.939Z,21.81
2017-05-29T08:09:13.526Z,21.85
2017-05-29T08:11:41.070Z,23.00
2017-05-29T08:14:08.616Z,22.25
2017-05-29T08:17:16.165Z,21.61
2017-05-29T08:19:43.722Z,22.25
2017-05-29T08:22:11.271Z,22.14
2017-05-29T08:24:38.873Z,21.35
2017-05-29T08:27:06.416Z,22.20
2017-05-29T08:29:34.296Z,21.65
2017-05-29T08:32:01.891Z,21.32
2017-05-29T08:34:29.469Z,22.03
2017-05-29T08:36:57.011Z,21.89
2017-05-29T08:39:25.425Z,22.04
2017-05-29T08:41:52.976Z,21.97
2017-05-29T08:44:20.524Z,22.46
2017-05-29T08:46:48.333Z,22.78
2017-05-29T08:49:16.098Z,22.90
2017-05-29T08:51:43.646Z,22.53
2017-05-29T08:54:11.295Z,22.38
2017-05-29T08:56:38.868Z,22.71
2017-05-29T08:59:06.415Z,23.10
2017-05-29T09:01:34.789Z,22.82
2017-05-29T09:04:02.624Z,22.73
2017-05-29T09:06:30.164Z,23.31
2017-05-29T09:08:57.782Z,23.37
2017-05-29T09:11:25.359Z,22.71
2017-05-29T09:13:52.928Z,23.22
2017-05-29T09:16:20.564Z,22.83
2017-05-29T09:18:48.125Z,22.82
2017-05-29T09:21:15.915Z,22.99
2017-05-29T09:23:43.760Z,22.85
2017-05-29T09:26:11.304Z,23.08
2017-05-29T09:28:38.850Z,23.04
2017-05-29T09:31:06.427Z,23.15
2017-05-29T09:33:33.979Z,22.81
2017-05-29T09:36:01.762Z,23.77
2017-05-29T09:38:29.362Z,23.83
2017-05-29T09:40:57.146Z,23.02
2017-05-29T09:43:24.710Z,23.28
2017-05-29T09:45:52.336Z,23.43
2017-05-29T09:48:19.891Z,23.08
2017-05-29T09:50:47.516Z,23.79
2017-05-29T09:53:15.136Z,25.08
2017-05-29T09:55:42.690Z,23.40
2017-05-29T09:58:10.247Z,24.07
2017-05-29T10:00:37.854Z,23.19
2017-05-29T10:03:05.407Z,23.14
2017-05-29T10:05:32.987Z,23.38
2017-05-29T10:08:00.578Z,23.12
2017-05-29T10:10:28.109Z,23.82
2017-05-29T10:12:55.914Z,23.39
2017-05-29T10:15:23.725Z,23.76
2017-05-29T10:17:51.277Z,23.67
2017-05-29T10:20:19.179Z,23.28
2017-05-29T10:22:46.766Z,23.16
2017-05-29T10:25:14.324Z,24.17
2017-05-29T10:27:41.914Z,24.78
2017-05-29T10:30:09.640Z,23.98
2017-05-29T10:32:37.497Z,24.65
2017-05-29T10:35:05.042Z,23.97
2017-05-29T10:37:32.650Z,24.80
2017-05-29T10:40:00.428Z,25.34
2017-05-29T10:42:27.977Z,24.33
2017-05-29T10:44:55.554Z,24.86
2017-05-29T10:47:23.140Z,25.11
2017-05-29T10:49:50.914Z,24.74
2017-05-29T10:52:18.529Z,24.58
2017-05-29T10:54:46.075Z,24.39
2017-05-29T10:57:13.616Z,24.31
2017-05-29T10:59:41.187Z,25.94
2017-05-29T11:02:08.790Z,25.74
2017-05-29T11:04:36.338Z,26.03
2017-05-29T11:07:03.992Z,24.72
2017-05-29T11:09:31.574Z,24.92
2017-05-29T11:11:59.121Z,24.41
2017-05-29T11:14:26.919Z,24.40
2017-05-29T11:16:55.422Z,24.36
2017-05-29T11:19:47.672Z,25.71
2017-05-29T11:22:15.274Z,24.81
2017-05-29T11:24:42.821Z,25.98
2017-05-29T11:27:10.363Z,25.93
2017-05-29T11:29:37.962Z,27.13
2017-05-29T11:32:05.580Z,27.54
2017-05-29T11:34:33.125Z,27.06
2017-05-29T11:37:00.708Z,29.25
2017-05-29T11:39:28.312Z,28.53
2017-05-29T11:41:55.967Z,28.60
2017-05-29T11:44:23.737Z,28.90
2017-05-29T11:46:51.322Z,28.64
2017-05-29T11:49:19.313Z,29.06
2017-05-29T11:51:46.907Z,29.96
2017-05-29T11:54:14.810Z,28.17
2017-05-29T11:56:42.673Z,27.20
2017-05-29T11:59:10.246Z,26.61
2017-05-29T12:01:37.899Z,25.81
2017-05-29T12:04:05.768Z,25.63
2017-05-29T12:06:33.307Z,24.77
2017-05-29T12:09:00.909Z,26.90
2017-05-29T12:11:28.458Z,26.22
2017-05-29T12:13:56.004Z,26.50
2017-05-29T12:16:23.619Z,27.06
2017-05-29T12:18:51.180Z,26.06
2017-05-29T12:21:18.897Z,27.22
2017-05-29T12:23:46.499Z,25.70
2017-05-29T12:26:14.066Z,26.15
2017-05-29T12:28:41.932Z,25.62
2017-05-29T12:31:09.740Z,25.60
2017-05-29T12:33:37.609Z,25.64
2017-05-29T12:36:05.167Z,25.68
2017-05-29T12:38:32.756Z,25.42
2017-05-29T12:41:00.302Z,24.66
2017-05-29T12:43:28.261Z,24.69
2017-05-29T12:45:56.591Z,24.29
2017-05-29T12:48:24.154Z,25.21
2017-05-29T12:50:51.708Z,24.89
2017-05-29T12:53:19.316Z,24.80
2017-05-29T12:55:46.894Z,24.22
2017-05-29T12:58:14.457Z,25.96
2017-05-29T13:00:42.057Z,26.50
2017-05-29T13:03:09.637Z,26.46
2017-05-29T13:05:37.191Z,26.47
2017-05-29T13:08:04.790Z,27.13
2017-05-29T13:10:32.670Z,26.76
2017-05-29T13:13:00.226Z,26.79
2017-05-29T13:15:27.847Z,26.55
2017-05-29T13:17:55.661Z,26.79
2017-05-29T13:20:23.213Z,26.97
2017-05-29T13:22:50.813Z,27.05
2017-05-29T13:25:18.699Z,26.99
2017-05-29T13:27:46.547Z,25.53
2017-05-29T13:30:14.273Z,26.82
2017-05-29T13:32:42.734Z,26.59
2017-05-29T13:35:10.566Z,24.80
2017-05-29T13:37:38.176Z,24.93
2017-05-29T13:40:05.837Z,25.55
2017-05-29T13:42:33.636Z,26.17
2017-05-29T13:45:01.286Z,24.21
2017-05-29T13:47:28.834Z,24.47
2017-05-29T13:49:56.666Z,24.89
2017-05-29T13:52:24.291Z,23.93
2017-05-29T13:54:52.076Z,25.45
2017-05-29T13:57:19.697Z,25.50
2017-05-29T13:59:47.320Z,25.04
2017-05-29T14:02:14.938Z,25.06
2017-05-29T14:04:42.654Z,24.87
2017-05-29T14:07:10.246Z,24.71
2017-05-29T14:09:37.950Z,24.17
2017-05-29T14:12:05.565Z,24.81
2017-05-29T14:14:33.614Z,25.10
2017-05-29T14:17:02.291Z,25.88
2017-05-29T14:19:30.222Z,23.91
2017-05-29T14:21:58.426Z,23.08
2017-05-29T14:24:26.055Z,23.55
2017-05-29T14:26:53.894Z,23.42
2017-05-29T14:29:22.466Z,23.25
2017-05-29T14:31:50.127Z,23.50
2017-05-29T14:34:18.613Z,23.27
2017-05-29T14:36:46.264Z,22.76
2017-05-29T14:39:13.869Z,22.75
2017-05-29T14:41:41.475Z,23.07
2017-05-29T14:44:09.122Z,22.99
2017-05-29T14:46:36.761Z,22.94
2017-05-29T14:49:04.552Z,23.17
2017-05-29T14:51:32.128Z,22.74
2017-05-29T14:54:00.450Z,23.42
2017-05-29T14:56:28.013Z,23.03
2017-05-29T14:58:55.572Z,23.05
2017-05-29T15:01:23.402Z,22.66
2017-05-29T15:03:51.007Z,22.90
2017-05-29T15:06:19.071Z,22.82
2017-05-29T15:08:46.822Z,22.81
2017-05-29T15:11:14.638Z,22.63
2017-05-29T15:13:42.338Z,23.20
2017-05-29T15:16:09.997Z,23.48
2017-05-29T15:18:37.783Z,23.01
2017-05-29T15:21:06.828Z,22.29
2017-05-29T15:23:34.530Z,22.94
2017-05-29T15:26:03.102Z,23.21
2017-05-29T15:28:30.750Z,23.31
2017-05-29T15:30:58.859Z,23.48
2017-05-29T15:33:27.306Z,23.57
2017-05-29T15:35:55.284Z,23.76
2017-05-29T15:38:23.119Z,23.47
2017-05-29T15:40:50.774Z,23.72
2017-05-29T15:43:18.366Z,23.25
2017-05-29T15:45:46.958Z,23.40
2017-05-29T15:48:14.850Z,23.38
2017-05-29T15:50:42.545Z,22.53
2017-05-29T15:53:10.218Z,22.82
2017-05-29T15:55:37.993Z,23.39
2017-05-29T15:58:05.878Z,23.48
2017-05-29T16:00:33.639Z,23.60
2017-05-29T16:03:01.316Z,23.49
2017-05-29T16:05:28.878Z,23.33
2017-05-29T16:07:56.487Z,22.68
2017-05-29T16:10:25.936Z,23.19
2017-05-29T16:12:53.558Z,22.90
2017-05-29T16:15:22.056Z,22.97
2017-05-29T16:17:49.674Z,22.54
2017-05-29T16:20:17.479Z,22.63
2017-05-29T16:22:45.285Z,22.57
2017-05-29T16:25:12.837Z,22.90
2017-05-29T16:27:41.122Z,22.68
2017-05-29T16:30:08.856Z,22.93
2017-05-29T16:32:36.460Z,22.07
2017-05-29T16:35:05.014Z,21.83
2017-05-29T16:37:32.678Z,21.93
2017-05-29T16:40:00.273Z,21.95
2017-05-29T16:42:27.836Z,21.65
2017-05-29T16:44:55.442Z,21.84
2017-05-29T16:47:23.124Z,21.84
2017-05-29T16:49:51.142Z,22.30
2017-05-29T16:52:18.822Z,22.19
2017-05-29T16:54:46.706Z,21.67
2017-05-29T16:57:14.563Z,21.92
2017-05-29T16:59:42.186Z,21.68
2017-05-29T17:02:09.800Z,21.64
2017-05-29T17:04:37.612Z,21.85
2017-05-29T17:07:05.248Z,21.78
2017-05-29T17:09:33.950Z,21.94
2017-05-29T17:12:01.725Z,21.57
2017-05-29T17:14:29.640Z,21.84
2017-05-29T17:16:57.255Z,21.69
2017-05-29T17:19:24.863Z,21.86
2017-05-29T17:21:52.483Z,21.27
2017-05-29T17:24:20.075Z,21.28
2017-05-29T17:26:47.634Z,21.49
2017-05-29T17:29:15.206Z,21.17
2017-05-29T17:31:42.791Z,21.32
2017-05-29T17:34:11.231Z,21.45
2017-05-29T17:36:39.002Z,20.97
2017-05-29T17:39:06.948Z,20.79
2017-05-29T17:41:34.755Z,21.12
2017-05-29T17:44:02.346Z,21.43
2017-05-29T17:46:30.029Z,21.90
2017-05-29T17:48:58.389Z,22.10
2017-05-29T17:51:26.260Z,22.21
2017-05-29T17:53:53.913Z,22.18
2017-05-29T17:56:21.827Z,22.09
2017-05-29T17:58:49.833Z,22.19
2017-05-29T18:01:17.689Z,22.21
2017-05-29T18:03:45.295Z,22.18
2017-05-29T18:06:13.242Z,22.20
2017-05-29T18:08:41.433Z,22.17
2017-05-29T18:11:08.979Z,22.14
2017-05-29T18:13:36.528Z,22.10
2017-05-29T18:16:04.146Z,21.82
2017-05-29T18:18:32.022Z,21.97
2017-05-29T18:20:59.571Z,21.93
2017-05-29T18:23:27.404Z,21.92
2017-05-29T18:25:54.969Z,22.00
2017-05-29T18:28:22.574Z,21.86
2017-05-29T18:30:50.477Z,21.92
2017-05-29T18:33:18.322Z,21.90
2017-05-29T18:35:46.107Z,21.71
2017-05-29T18:38:13.758Z,21.67
2017-05-29T18:40:41.294Z,21.61
2017-05-29T18:43:08.836Z,21.71
2017-05-29T18:45:37.529Z,21.44
2017-05-29T18:48:05.181Z,21.44
2017-05-29T18:50:33.319Z,21.56
2017-05-29T18:53:01.034Z,21.05
2017-05-29T18:55:28.891Z,20.84
2017-05-29T18:57:56.488Z,20.91
2017-05-29T19:00:24.169Z,21.14
2017-05-29T19:02:51.714Z,20.98
2017-05-29T19:05:19.284Z,20.44
2017-05-29T19:07:46.887Z,19.83
2017-05-29T19:10:14.451Z,20.03
2017-05-29T19:12:42.033Z,20.48
2017-05-29T19:15:09.630Z,20.27
2017-05-29T19:17:37.181Z,20.05
2017-05-29T19:20:04.758Z,20.19
2017-05-29T19:22:33.217Z,20.44
2017-05-29T19:25:01.178Z,20.66
2017-05-29T19:27:28.853Z,20.82
2017-05-29T19:29:56.498Z,20.99
2017-05-29T19:32:24.126Z,21.05
2017-05-29T19:34:51.750Z,21.07
2017-05-29T19:37:19.545Z,21.06
2017-05-29T19:39:47.191Z,21.09
2017-05-29T19:42:14.778Z,21.02
2017-05-29T19:44:42.325Z,20.99
2017-05-29T19:47:09.923Z,21.01
2017-05-29T19:49:37.482Z,20.80
2017-05-29T19:52:05.092Z,20.09
2017-05-29T19:54:32.694Z,20.61
2017-05-29T19:57:00.561Z,20.55
2017-05-29T19:59:28.349Z,20.40
2017-05-29T20:01:55.942Z,20.29
2017-05-29T20:04:23.797Z,20.51
2017-05-29T20:06:51.761Z,20.47
2017-05-29T20:09:19.368Z,20.33
2017-05-29T20:11:46.928Z,19.57
2017-05-29T20:14:14.487Z,19.53
2017-05-29T20:16:42.090Z,19.51
2017-05-29T20:19:09.986Z,19.87
2017-05-29T20:21:37.813Z,19.62
2017-05-29T20:24:06.285Z,19.37
2017-05-29T20:26:33.871Z,19.45
2017-05-29T20:29:01.435Z,19.74
2017-05-29T20:31:29.029Z,20.04
2017-05-29T20:33:56.847Z,20.05
2017-05-29T20:36:24.439Z,20.17
2017-05-29T20:38:52.082Z,20.20
2017-05-29T20:41:19.650Z,19.86
2017-05-29T20:43:47.215Z,19.77
2017-05-29T20:46:14.855Z,19.63
2017-05-29T20:48:42.414Z,19.05
2017-05-29T20:51:09.990Z,19.72
2017-05-29T20:53:39.179Z,19.78
2017-05-29T20:56:06.971Z,19.82
2017-05-29T20:58:34.896Z,19.89
2017-05-29T21:01:02.738Z,19.81
2017-05-29T21:03:30.558Z,19.79
2017-05-29T21:05:58.110Z,19.87
2017-05-29T21:08:33.493Z,19.67
2017-05-29T21:11:43.414Z,19.44
2017-05-29T21:30:59.681Z,19.15
2017-05-29T21:33:28.071Z,19.08
2017-05-29T21:39:23.178Z,18.20
2017-05-29T21:41:58.905Z,18.42
2017-05-29T21:44:27.877Z,18.86
2017-05-29T21:46:55.415Z,18.01
2017-05-29T21:49:22.975Z,17.66
2017-05-29T21:51:50.595Z,17.33
2017-05-29T21:54:18.330Z,17.19
2017-05-29T21:56:46.486Z,17.22
2017-05-29T21:59:18.481Z,17.16
2017-05-29T22:02:27.124Z,17.20
2017-05-29T22:05:43.115Z,17.28
2017-05-29T22:08:18.611Z,17.03
2017-05-29T22:14:50.353Z,16.78
2017-05-29T22:17:18.200Z,17.04
2017-05-29T22:19:45.783Z,16.90
2017-05-29T22:22:17.508Z,17.22
2017-05-29T22:24:45.079Z,17.44
2017-05-29T22:27:12.856Z,17.24
2017-05-29T22:29:40.474Z,17.06
2017-05-29T22:32:08.079Z,16.98
2017-05-29T22:34:35.706Z,17.20
2017-05-29T22:37:03.316Z,17.78
2017-05-29T22:39:30.947Z,17.93
2017-05-29T22:42:11.667Z,18.04
2017-05-29T22:44:39.262Z,18.19
2017-05-29T22:47:06.807Z,17.94
2017-05-29T22:49:34.634Z,17.94
2017-05-29T22:52:02.232Z,17.83
2017-05-29T22:54:29.802Z,17.21
2017-05-29T22:56:57.388Z,16.62
2017-05-29T22:59:25.000Z,15.97
2017-05-29T23:01:52.598Z,16.23
2017-05-29T23:04:20.167Z,16.76
2017-05-29T23:06:47.713Z,17.47
2017-05-29T23:09:15.322Z,17.50
2017-05-29T23:11:42.863Z,17.73
2017-05-29T23:14:11.084Z,17.75
2017-05-29T23:16:38.667Z,17.66
2017-05-29T23:19:06.406Z,17.65
2017-05-29T23:21:33.966Z,17.77
2017-05-29T23:24:01.602Z,17.87
2017-05-29T23:26:29.186Z,17.60
2017-05-29T23:28:56.772Z,17.29
2017-05-29T23:31:24.391Z,17.68
2017-05-29T23:33:51.958Z,17.73
2017-05-29T23:36:19.547Z,17.70
2017-05-29T23:38:47.170Z,17.74
2017-05-29T23:41:14.769Z,17.64
2017-05-29T23:43:42.378Z,17.59
2017-05-29T23:46:09.992Z,17.50
2017-05-29T23:48:37.553Z,17.48
2017-05-29T23:51:05.387Z,17.44
2017-05-29T23:53:32.976Z,17.44
2017-05-29T23:56:00.531Z,17.26
2017-05-29T23:58:28.305Z,17.27
